sensor_id;sensor_type;location;lat;lon;timestamp;temperature;humidity
78054;DHT22;67726;45.636;11.752;2023-07-31T00:00:32;24.20;74.90
78054;DHT22;67726;45.636;11.752;2023-07-31T00:02:58;24.30;74.80
78054;DHT22;67726;45.636;11.752;2023-07-31T00:05:24;24.20;74.90
78054;DHT22;67726;45.636;11.752;2023-07-31T00:07:49;24.30;74.80
78054;DHT22;67726;45.636;11.752;2023-07-31T00:10:15;24.30;74.90
78054;DHT22;67726;45.636;11.752;2023-07-31T00:12:43;24.40;74.70
78054;DHT22;67726;45.636;11.752;2023-07-31T00:15:09;24.40;74.60
78054;DHT22;67726;45.636;11.752;2023-07-31T00:17:36;24.40;74.70
78054;DHT22;67726;45.636;11.752;2023-07-31T00:20:02;24.50;74.50
78054;DHT22;67726;45.636;11.752;2023-07-31T00:22:28;24.40;74.50
78054;DHT22;67726;45.636;11.752;2023-07-31T00:24:55;24.50;74.50
78054;DHT22;67726;45.636;11.752;2023-07-31T00:27:21;24.50;74.60
78054;DHT22;67726;45.636;11.752;2023-07-31T00:29:47;24.50;74.50
78054;DHT22;67726;45.636;11.752;2023-07-31T00:32:12;24.60;74.60
78054;DHT22;67726;45.636;11.752;2023-07-31T00:34:38;24.50;74.40
78054;DHT22;67726;45.636;11.752;2023-07-31T00:37:04;24.50;74.40
78054;DHT22;67726;45.636;11.752;2023-07-31T00:39:30;24.50;74.50
78054;DHT22;67726;45.636;11.752;2023-07-31T00:41:56;24.50;74.50
78054;DHT22;67726;45.636;11.752;2023-07-31T00:44:22;24.40;74.50
78054;DHT22;67726;45.636;11.752;2023-07-31T00:46:48;24.40;74.80
78054;DHT22;67726;45.636;11.752;2023-07-31T00:49:14;24.40;74.70
78054;DHT22;67726;45.636;11.752;2023-07-31T00:51:40;24.30;74.70
78054;DHT22;67726;45.636;11.752;2023-07-31T00:54:06;24.40;75.20
78054;DHT22;67726;45.636;11.752;2023-07-31T00:56:32;24.20;75.10
78054;DHT22;67726;45.636;11.752;2023-07-31T00:58:58;24.20;75.30
78054;DHT22;67726;45.636;11.752;2023-07-31T01:01:24;24.20;75.20
78054;DHT22;67726;45.636;11.752;2023-07-31T01:03:50;24.20;75.30
78054;DHT22;67726;45.636;11.752;2023-07-31T01:06:40;24.20;75.30
78054;DHT22;67726;45.636;11.752;2023-07-31T01:12:02;24.10;75.10
78054;DHT22;67726;45.636;11.752;2023-07-31T01:14:28;24.10;75.40
78054;DHT22;67726;45.636;11.752;2023-07-31T01:16:54;24.20;75.10
78054;DHT22;67726;45.636;11.752;2023-07-31T01:19:25;24.20;75.10
78054;DHT22;67726;45.636;11.752;2023-07-31T01:27:31;24.20;75.20
78054;DHT22;67726;45.636;11.752;2023-07-31T01:30:05;24.10;74.90
78054;DHT22;67726;45.636;11.752;2023-07-31T01:32:38;24.10;75.20
78054;DHT22;67726;45.636;11.752;2023-07-31T01:35:06;24.10;75.10
78054;DHT22;67726;45.636;11.752;2023-07-31T01:37:32;24.10;75.40
78054;DHT22;67726;45.636;11.752;2023-07-31T01:39:57;24.00;75.20
78054;DHT22;67726;45.636;11.752;2023-07-31T01:42:23;23.90;75.40
78054;DHT22;67726;45.636;11.752;2023-07-31T01:44:49;24.10;75.50
78054;DHT22;67726;45.636;11.752;2023-07-31T01:47:14;24.00;75.60
78054;DHT22;67726;45.636;11.752;2023-07-31T01:49:40;24.00;75.50
78054;DHT22;67726;45.636;11.752;2023-07-31T01:52:06;24.00;75.40
78054;DHT22;67726;45.636;11.752;2023-07-31T01:54:31;24.00;75.60
78054;DHT22;67726;45.636;11.752;2023-07-31T01:56:58;24.00;75.40
78054;DHT22;67726;45.636;11.752;2023-07-31T01:59:24;23.90;75.50
78054;DHT22;67726;45.636;11.752;2023-07-31T02:01:50;23.80;75.50
78054;DHT22;67726;45.636;11.752;2023-07-31T02:04:16;23.80;75.40
78054;DHT22;67726;45.636;11.752;2023-07-31T02:06:41;23.80;75.80
78054;DHT22;67726;45.636;11.752;2023-07-31T02:09:07;23.90;75.60
78054;DHT22;67726;45.636;11.752;2023-07-31T02:11:32;23.80;75.50
78054;DHT22;67726;45.636;11.752;2023-07-31T02:13:58;23.80;75.50
78054;DHT22;67726;45.636;11.752;2023-07-31T02:16:24;23.80;75.60
78054;DHT22;67726;45.636;11.752;2023-07-31T02:18:49;23.80;75.50
78054;DHT22;67726;45.636;11.752;2023-07-31T02:21:15;23.80;75.60
78054;DHT22;67726;45.636;11.752;2023-07-31T02:23:40;23.80;75.50
78054;DHT22;67726;45.636;11.752;2023-07-31T02:26:06;23.70;75.70
78054;DHT22;67726;45.636;11.752;2023-07-31T02:28:32;23.80;75.50
78054;DHT22;67726;45.636;11.752;2023-07-31T02:30:58;23.70;75.50
78054;DHT22;67726;45.636;11.752;2023-07-31T02:33:23;23.70;75.70
78054;DHT22;67726;45.636;11.752;2023-07-31T02:35:49;23.70;75.50
78054;DHT22;67726;45.636;11.752;2023-07-31T02:38:15;23.70;75.70
78054;DHT22;67726;45.636;11.752;2023-07-31T02:40:40;23.70;75.70
78054;DHT22;67726;45.636;11.752;2023-07-31T02:43:09;23.70;75.80
78054;DHT22;67726;45.636;11.752;2023-07-31T02:45:35;23.70;75.70
78054;DHT22;67726;45.636;11.752;2023-07-31T02:48:00;23.60;75.70
78054;DHT22;67726;45.636;11.752;2023-07-31T02:50:26;23.60;76.50
78054;DHT22;67726;45.636;11.752;2023-07-31T02:52:53;23.60;76.30
78054;DHT22;67726;45.636;11.752;2023-07-31T02:55:18;23.50;76.30
78054;DHT22;67726;45.636;11.752;2023-07-31T02:57:44;23.50;76.50
78054;DHT22;67726;45.636;11.752;2023-07-31T03:00:10;23.40;76.60
78054;DHT22;67726;45.636;11.752;2023-07-31T03:02:36;23.40;76.60
78054;DHT22;67726;45.636;11.752;2023-07-31T03:05:02;23.40;76.50
78054;DHT22;67726;45.636;11.752;2023-07-31T03:07:28;23.40;76.60
78054;DHT22;67726;45.636;11.752;2023-07-31T03:09:55;23.40;76.70
78054;DHT22;67726;45.636;11.752;2023-07-31T03:12:21;23.40;76.90
78054;DHT22;67726;45.636;11.752;2023-07-31T03:14:47;23.40;76.70
78054;DHT22;67726;45.636;11.752;2023-07-31T03:17:12;23.40;77.00
78054;DHT22;67726;45.636;11.752;2023-07-31T03:19:38;23.30;77.10
78054;DHT22;67726;45.636;11.752;2023-07-31T03:22:04;23.30;76.90
78054;DHT22;67726;45.636;11.752;2023-07-31T03:24:29;23.30;76.90
78054;DHT22;67726;45.636;11.752;2023-07-31T03:26:55;23.30;77.10
78054;DHT22;67726;45.636;11.752;2023-07-31T03:29:21;23.30;77.00
78054;DHT22;67726;45.636;11.752;2023-07-31T03:31:46;23.20;77.00
78054;DHT22;67726;45.636;11.752;2023-07-31T03:34:12;23.20;77.50
78054;DHT22;67726;45.636;11.752;2023-07-31T03:36:38;23.20;77.40
78054;DHT22;67726;45.636;11.752;2023-07-31T03:39:03;23.20;77.30
78054;DHT22;67726;45.636;11.752;2023-07-31T03:41:29;23.30;77.40
78054;DHT22;67726;45.636;11.752;2023-07-31T03:43:55;23.40;77.20
78054;DHT22;67726;45.636;11.752;2023-07-31T03:46:22;23.30;76.90
78054;DHT22;67726;45.636;11.752;2023-07-31T03:48:48;23.40;77.00
78054;DHT22;67726;45.636;11.752;2023-07-31T03:51:14;23.30;76.80
78054;DHT22;67726;45.636;11.752;2023-07-31T03:53:40;23.40;76.80
78054;DHT22;67726;45.636;11.752;2023-07-31T03:56:05;23.40;76.60
78054;DHT22;67726;45.636;11.752;2023-07-31T03:58:31;23.40;76.80
78054;DHT22;67726;45.636;11.752;2023-07-31T04:00:57;23.40;76.60
78054;DHT22;67726;45.636;11.752;2023-07-31T04:03:22;23.30;76.60
78054;DHT22;67726;45.636;11.752;2023-07-31T04:05:48;23.30;77.10
78054;DHT22;67726;45.636;11.752;2023-07-31T04:08:14;23.30;76.80
78054;DHT22;67726;45.636;11.752;2023-07-31T04:10:41;23.30;77.20
78054;DHT22;67726;45.636;11.752;2023-07-31T04:13:06;23.30;76.90
78054;DHT22;67726;45.636;11.752;2023-07-31T04:15:32;23.30;76.70
78054;DHT22;67726;45.636;11.752;2023-07-31T04:17:57;23.40;76.80
78054;DHT22;67726;45.636;11.752;2023-07-31T04:20:23;23.40;76.90
78054;DHT22;67726;45.636;11.752;2023-07-31T04:22:49;23.40;76.70
78054;DHT22;67726;45.636;11.752;2023-07-31T04:25:15;23.40;76.40
78054;DHT22;67726;45.636;11.752;2023-07-31T04:27:40;23.50;76.60
78054;DHT22;67726;45.636;11.752;2023-07-31T04:30:06;23.50;76.40
78054;DHT22;67726;45.636;11.752;2023-07-31T04:32:32;23.60;75.40
78054;DHT22;67726;45.636;11.752;2023-07-31T04:34:58;23.70;75.10
78054;DHT22;67726;45.636;11.752;2023-07-31T04:37:23;23.70;74.90
78054;DHT22;67726;45.636;11.752;2023-07-31T04:39:49;23.80;74.60
78054;DHT22;67726;45.636;11.752;2023-07-31T04:42:15;24.00;74.70
78054;DHT22;67726;45.636;11.752;2023-07-31T04:44:40;24.00;74.40
78054;DHT22;67726;45.636;11.752;2023-07-31T04:47:06;24.10;74.30
78054;DHT22;67726;45.636;11.752;2023-07-31T04:49:32;24.20;74.10
78054;DHT22;67726;45.636;11.752;2023-07-31T04:51:58;24.40;73.30
78054;DHT22;67726;45.636;11.752;2023-07-31T04:54:24;24.40;72.50
78054;DHT22;67726;45.636;11.752;2023-07-31T04:56:49;24.60;72.10
78054;DHT22;67726;45.636;11.752;2023-07-31T04:59:15;24.70;71.70
78054;DHT22;67726;45.636;11.752;2023-07-31T05:01:40;24.70;70.10
78054;DHT22;67726;45.636;11.752;2023-07-31T05:04:06;24.90;70.20
78054;DHT22;67726;45.636;11.752;2023-07-31T05:06:32;25.00;70.30
78054;DHT22;67726;45.636;11.752;2023-07-31T05:08:58;25.00;69.60
78054;DHT22;67726;45.636;11.752;2023-07-31T05:11:24;25.20;69.10
78054;DHT22;67726;45.636;11.752;2023-07-31T05:13:49;25.20;69.40
78054;DHT22;67726;45.636;11.752;2023-07-31T05:16:15;25.60;69.00
78054;DHT22;67726;45.636;11.752;2023-07-31T05:18:40;26.60;64.10
78054;DHT22;67726;45.636;11.752;2023-07-31T05:21:06;27.90;61.50
78054;DHT22;67726;45.636;11.752;2023-07-31T05:23:32;29.10;56.20
78054;DHT22;67726;45.636;11.752;2023-07-31T05:26:07;30.40;54.40
78054;DHT22;67726;45.636;11.752;2023-07-31T05:28:35;31.30;50.70
78054;DHT22;67726;45.636;11.752;2023-07-31T05:31:02;32.20;45.60
78054;DHT22;67726;45.636;11.752;2023-07-31T05:33:28;32.70;46.60
78054;DHT22;67726;45.636;11.752;2023-07-31T05:35:53;33.20;45.50
78054;DHT22;67726;45.636;11.752;2023-07-31T05:38:19;33.50;44.70
78054;DHT22;67726;45.636;11.752;2023-07-31T05:40:45;33.90;44.10
78054;DHT22;67726;45.636;11.752;2023-07-31T05:43:10;34.30;40.60
78054;DHT22;67726;45.636;11.752;2023-07-31T05:45:36;34.50;41.90
78054;DHT22;67726;45.636;11.752;2023-07-31T05:48:03;34.70;40.90
78054;DHT22;67726;45.636;11.752;2023-07-31T05:50:29;35.10;37.20
78054;DHT22;67726;45.636;11.752;2023-07-31T05:52:55;35.50;36.60
78054;DHT22;67726;45.636;11.752;2023-07-31T05:55:20;36.30;37.90
78054;DHT22;67726;45.636;11.752;2023-07-31T05:57:46;36.40;37.50
78054;DHT22;67726;45.636;11.752;2023-07-31T06:00:13;37.00;37.00
78054;DHT22;67726;45.636;11.752;2023-07-31T06:02:39;37.40;35.30
78054;DHT22;67726;45.636;11.752;2023-07-31T06:05:05;37.50;34.10
78054;DHT22;67726;45.636;11.752;2023-07-31T06:07:34;37.60;33.80
78054;DHT22;67726;45.636;11.752;2023-07-31T06:09:59;37.70;31.20
78054;DHT22;67726;45.636;11.752;2023-07-31T06:12:32;38.10;33.40
78054;DHT22;67726;45.636;11.752;2023-07-31T06:14:58;38.50;32.60
78054;DHT22;67726;45.636;11.752;2023-07-31T06:17:24;38.90;31.70
78054;DHT22;67726;45.636;11.752;2023-07-31T06:19:50;39.60;29.30
78054;DHT22;67726;45.636;11.752;2023-07-31T06:22:16;40.00;29.80
78054;DHT22;67726;45.636;11.752;2023-07-31T06:24:42;40.60;27.70
78054;DHT22;67726;45.636;11.752;2023-07-31T06:27:07;41.20;27.50
78054;DHT22;67726;45.636;11.752;2023-07-31T06:29:33;41.40;27.20
78054;DHT22;67726;45.636;11.752;2023-07-31T06:31:59;42.00;26.10
78054;DHT22;67726;45.636;11.752;2023-07-31T06:34:25;42.20;26.20
78054;DHT22;67726;45.636;11.752;2023-07-31T06:36:50;0.20;0.20
78054;DHT22;67726;45.636;11.752;2023-07-31T06:39:16;0.20;0.20
78054;DHT22;67726;45.636;11.752;2023-07-31T06:41:44;0.20;0.20
78054;DHT22;67726;45.636;11.752;2023-07-31T06:44:10;0.20;0.20
78054;DHT22;67726;45.636;11.752;2023-07-31T06:46:36;0.20;0.20
78054;DHT22;67726;45.636;11.752;2023-07-31T06:49:01;0.20;0.20
78054;DHT22;67726;45.636;11.752;2023-07-31T06:51:27;0.20;0.20
78054;DHT22;67726;45.636;11.752;2023-07-31T06:53:53;0.20;0.20
78054;DHT22;67726;45.636;11.752;2023-07-31T06:56:18;0.20;0.20
78054;DHT22;67726;45.636;11.752;2023-07-31T06:58:44;0.20;0.20
78054;DHT22;67726;45.636;11.752;2023-07-31T07:01:10;0.20;0.20
78054;DHT22;67726;45.636;11.752;2023-07-31T07:03:35;0.20;0.20
78054;DHT22;67726;45.636;11.752;2023-07-31T07:06:01;0.20;0.20
78054;DHT22;67726;45.636;11.752;2023-07-31T07:08:27;0.20;0.20
78054;DHT22;67726;45.636;11.752;2023-07-31T07:10:52;0.20;0.20
78054;DHT22;67726;45.636;11.752;2023-07-31T07:13:19;0.20;0.20
78054;DHT22;67726;45.636;11.752;2023-07-31T07:15:48;0.20;0.20
78054;DHT22;67726;45.636;11.752;2023-07-31T07:18:14;0.20;0.20
78054;DHT22;67726;45.636;11.752;2023-07-31T07:20:40;0.20;0.20
78054;DHT22;67726;45.636;11.752;2023-07-31T07:23:06;0.20;0.20
78054;DHT22;67726;45.636;11.752;2023-07-31T07:25:32;0.20;0.20
78054;DHT22;67726;45.636;11.752;2023-07-31T07:27:57;0.20;0.20
78054;DHT22;67726;45.636;11.752;2023-07-31T07:30:23;0.20;0.20
78054;DHT22;67726;45.636;11.752;2023-07-31T07:32:50;0.20;0.20
78054;DHT22;67726;45.636;11.752;2023-07-31T07:35:16;0.20;0.20
78054;DHT22;67726;45.636;11.752;2023-07-31T07:37:42;0.20;0.20
78054;DHT22;67726;45.636;11.752;2023-07-31T07:40:08;0.20;0.20
78054;DHT22;67726;45.636;11.752;2023-07-31T07:42:33;0.20;0.20
78054;DHT22;67726;45.636;11.752;2023-07-31T07:44:59;0.20;0.20
78054;DHT22;67726;45.636;11.752;2023-07-31T07:47:25;0.20;0.20
78054;DHT22;67726;45.636;11.752;2023-07-31T07:49:50;0.20;0.20
78054;DHT22;67726;45.636;11.752;2023-07-31T07:52:16;0.20;0.20
78054;DHT22;67726;45.636;11.752;2023-07-31T07:54:42;0.20;0.20
78054;DHT22;67726;45.636;11.752;2023-07-31T07:57:07;0.20;0.20
78054;DHT22;67726;45.636;11.752;2023-07-31T07:59:33;0.20;0.20
78054;DHT22;67726;45.636;11.752;2023-07-31T08:01:58;0.20;0.20
78054;DHT22;67726;45.636;11.752;2023-07-31T08:04:24;0.20;0.20
78054;DHT22;67726;45.636;11.752;2023-07-31T08:06:50;0.20;0.20
78054;DHT22;67726;45.636;11.752;2023-07-31T08:09:15;0.20;0.20
78054;DHT22;67726;45.636;11.752;2023-07-31T08:11:41;0.20;0.20
78054;DHT22;67726;45.636;11.752;2023-07-31T08:14:07;0.20;0.20
78054;DHT22;67726;45.636;11.752;2023-07-31T08:16:32;0.20;0.20
78054;DHT22;67726;45.636;11.752;2023-07-31T08:18:58;0.20;0.20
78054;DHT22;67726;45.636;11.752;2023-07-31T08:21:24;0.20;0.20
78054;DHT22;67726;45.636;11.752;2023-07-31T08:23:49;0.20;0.20
78054;DHT22;67726;45.636;11.752;2023-07-31T08:26:19;0.20;0.20
78054;DHT22;67726;45.636;11.752;2023-07-31T08:28:44;0.20;0.20
78054;DHT22;67726;45.636;11.752;2023-07-31T08:31:10;0.20;0.20
78054;DHT22;67726;45.636;11.752;2023-07-31T08:33:37;0.20;0.20
78054;DHT22;67726;45.636;11.752;2023-07-31T08:36:03;0.20;0.20
78054;DHT22;67726;45.636;11.752;2023-07-31T08:38:29;0.20;0.20
78054;DHT22;67726;45.636;11.752;2023-07-31T08:40:57;0.20;0.20
78054;DHT22;67726;45.636;11.752;2023-07-31T08:43:26;0.20;0.20
78054;DHT22;67726;45.636;11.752;2023-07-31T08:45:52;0.20;0.20
78054;DHT22;67726;45.636;11.752;2023-07-31T08:48:20;0.20;0.20
78054;DHT22;67726;45.636;11.752;2023-07-31T08:50:46;0.20;0.20
78054;DHT22;67726;45.636;11.752;2023-07-31T08:53:12;0.20;0.20
78054;DHT22;67726;45.636;11.752;2023-07-31T08:55:38;0.20;0.20
78054;DHT22;67726;45.636;11.752;2023-07-31T08:58:04;0.20;0.20
78054;DHT22;67726;45.636;11.752;2023-07-31T09:00:32;0.20;0.20
78054;DHT22;67726;45.636;11.752;2023-07-31T09:03:13;0.20;0.20
78054;DHT22;67726;45.636;11.752;2023-07-31T09:05:42;0.20;0.20
78054;DHT22;67726;45.636;11.752;2023-07-31T09:08:10;0.20;0.20
78054;DHT22;67726;45.636;11.752;2023-07-31T09:10:41;0.20;0.20
78054;DHT22;67726;45.636;11.752;2023-07-31T09:13:07;0.20;0.20
78054;DHT22;67726;45.636;11.752;2023-07-31T09:15:33;0.20;0.20
78054;DHT22;67726;45.636;11.752;2023-07-31T09:18:00;0.20;0.20
78054;DHT22;67726;45.636;11.752;2023-07-31T09:20:27;0.20;0.20
78054;DHT22;67726;45.636;11.752;2023-07-31T09:22:53;0.20;0.20
78054;DHT22;67726;45.636;11.752;2023-07-31T09:25:25;0.20;0.20
78054;DHT22;67726;45.636;11.752;2023-07-31T09:27:57;0.20;0.20
78054;DHT22;67726;45.636;11.752;2023-07-31T09:30:23;0.20;0.20
78054;DHT22;67726;45.636;11.752;2023-07-31T09:32:50;0.20;0.20
78054;DHT22;67726;45.636;11.752;2023-07-31T09:35:20;0.20;0.20
78054;DHT22;67726;45.636;11.752;2023-07-31T09:37:58;0.20;0.20
78054;DHT22;67726;45.636;11.752;2023-07-31T09:40:34;0.20;0.20
78054;DHT22;67726;45.636;11.752;2023-07-31T09:43:02;0.20;0.20
78054;DHT22;67726;45.636;11.752;2023-07-31T09:45:29;0.20;0.20
78054;DHT22;67726;45.636;11.752;2023-07-31T09:47:56;0.20;0.20
78054;DHT22;67726;45.636;11.752;2023-07-31T09:50:23;0.20;0.20
78054;DHT22;67726;45.636;11.752;2023-07-31T09:52:50;0.20;0.20
78054;DHT22;67726;45.636;11.752;2023-07-31T09:55:16;0.20;0.20
78054;DHT22;67726;45.636;11.752;2023-07-31T09:57:44;0.20;0.20
78054;DHT22;67726;45.636;11.752;2023-07-31T10:00:13;0.20;0.20
78054;DHT22;67726;45.636;11.752;2023-07-31T10:02:39;0.20;0.20
78054;DHT22;67726;45.636;11.752;2023-07-31T10:05:07;0.20;0.20
78054;DHT22;67726;45.636;11.752;2023-07-31T10:07:38;0.20;0.20
78054;DHT22;67726;45.636;11.752;2023-07-31T10:10:06;0.20;0.20
78054;DHT22;67726;45.636;11.752;2023-07-31T10:12:33;0.20;0.20
78054;DHT22;67726;45.636;11.752;2023-07-31T10:15:00;0.20;0.20
78054;DHT22;67726;45.636;11.752;2023-07-31T10:17:26;0.20;0.20
78054;DHT22;67726;45.636;11.752;2023-07-31T10:19:53;0.20;0.20
78054;DHT22;67726;45.636;11.752;2023-07-31T10:22:22;0.20;0.20
78054;DHT22;67726;45.636;11.752;2023-07-31T10:24:49;0.20;0.20
78054;DHT22;67726;45.636;11.752;2023-07-31T10:27:15;0.20;0.20
78054;DHT22;67726;45.636;11.752;2023-07-31T10:29:43;0.20;0.20
78054;DHT22;67726;45.636;11.752;2023-07-31T10:32:13;0.20;0.20
78054;DHT22;67726;45.636;11.752;2023-07-31T10:34:40;0.20;0.20
78054;DHT22;67726;45.636;11.752;2023-07-31T10:39:56;0.20;0.20
78054;DHT22;67726;45.636;11.752;2023-07-31T10:42:49;0.20;0.20
78054;DHT22;67726;45.636;11.752;2023-07-31T10:45:14;0.20;0.20
78054;DHT22;67726;45.636;11.752;2023-07-31T10:47:44;0.20;0.20
78054;DHT22;67726;45.636;11.752;2023-07-31T10:50:17;0.20;0.20
78054;DHT22;67726;45.636;11.752;2023-07-31T10:52:48;0.20;0.20
78054;DHT22;67726;45.636;11.752;2023-07-31T10:55:41;0.20;0.20
78054;DHT22;67726;45.636;11.752;2023-07-31T10:58:08;0.20;0.20
78054;DHT22;67726;45.636;11.752;2023-07-31T11:00:34;0.20;0.20
78054;DHT22;67726;45.636;11.752;2023-07-31T11:03:06;0.20;0.20
78054;DHT22;67726;45.636;11.752;2023-07-31T11:08:24;0.20;0.20
78054;DHT22;67726;45.636;11.752;2023-07-31T11:13:33;0.20;0.20
78054;DHT22;67726;45.636;11.752;2023-07-31T11:15:59;0.20;0.20
78054;DHT22;67726;45.636;11.752;2023-07-31T11:18:26;0.20;0.20
78054;DHT22;67726;45.636;11.752;2023-07-31T11:20:52;0.20;0.20
78054;DHT22;67726;45.636;11.752;2023-07-31T11:23:19;0.20;0.20
78054;DHT22;67726;45.636;11.752;2023-07-31T11:25:45;38.90;20.00
78054;DHT22;67726;45.636;11.752;2023-07-31T11:28:15;39.40;19.40
78054;DHT22;67726;45.636;11.752;2023-07-31T11:30:43;40.10;17.40
78054;DHT22;67726;45.636;11.752;2023-07-31T11:33:11;39.20;17.80
78054;DHT22;67726;45.636;11.752;2023-07-31T11:35:48;37.80;20.10
78054;DHT22;67726;45.636;11.752;2023-07-31T11:38:28;37.00;21.70
78054;DHT22;67726;45.636;11.752;2023-07-31T11:40:56;36.40;23.20
78054;DHT22;67726;45.636;11.752;2023-07-31T11:43:23;35.40;23.20
78054;DHT22;67726;45.636;11.752;2023-07-31T11:45:51;34.70;24.20
78054;DHT22;67726;45.636;11.752;2023-07-31T11:48:34;34.40;26.50
78054;DHT22;67726;45.636;11.752;2023-07-31T11:51:07;34.00;27.40
78054;DHT22;67726;45.636;11.752;2023-07-31T11:53:42;33.90;27.00
78054;DHT22;67726;45.636;11.752;2023-07-31T11:56:12;34.10;26.70
78054;DHT22;67726;45.636;11.752;2023-07-31T11:58:39;33.50;25.50
78054;DHT22;67726;45.636;11.752;2023-07-31T12:01:05;33.50;27.80
78054;DHT22;67726;45.636;11.752;2023-07-31T12:03:32;34.00;28.20
78054;DHT22;67726;45.636;11.752;2023-07-31T12:05:59;34.60;25.70
78054;DHT22;67726;45.636;11.752;2023-07-31T12:08:25;34.70;23.80
78054;DHT22;67726;45.636;11.752;2023-07-31T12:10:52;34.10;24.40
78054;DHT22;67726;45.636;11.752;2023-07-31T12:13:23;34.80;25.80
78054;DHT22;67726;45.636;11.752;2023-07-31T12:15:54;34.20;25.60
78054;DHT22;67726;45.636;11.752;2023-07-31T12:18:21;34.60;25.10
78054;DHT22;67726;45.636;11.752;2023-07-31T12:20:49;35.10;24.40
78054;DHT22;67726;45.636;11.752;2023-07-31T12:23:41;35.10;24.40
78054;DHT22;67726;45.636;11.752;2023-07-31T12:26:14;35.80;24.40
78054;DHT22;67726;45.636;11.752;2023-07-31T12:28:44;36.40;23.30
78054;DHT22;67726;45.636;11.752;2023-07-31T12:31:15;36.00;22.80
78054;DHT22;67726;45.636;11.752;2023-07-31T12:33:42;36.20;23.10
78054;DHT22;67726;45.636;11.752;2023-07-31T12:36:13;35.80;23.00
78054;DHT22;67726;45.636;11.752;2023-07-31T12:38:39;36.50;22.30
78054;DHT22;67726;45.636;11.752;2023-07-31T12:41:05;35.60;23.20
78054;DHT22;67726;45.636;11.752;2023-07-31T12:43:33;35.90;22.60
78054;DHT22;67726;45.636;11.752;2023-07-31T12:45:59;36.10;23.20
78054;DHT22;67726;45.636;11.752;2023-07-31T12:48:25;35.90;23.20
78054;DHT22;67726;45.636;11.752;2023-07-31T12:50:51;35.80;23.00
78054;DHT22;67726;45.636;11.752;2023-07-31T12:53:16;36.30;22.50
78054;DHT22;67726;45.636;11.752;2023-07-31T12:55:42;36.20;23.20
78054;DHT22;67726;45.636;11.752;2023-07-31T12:58:08;35.00;24.10
78054;DHT22;67726;45.636;11.752;2023-07-31T13:00:34;36.00;23.60
78054;DHT22;67726;45.636;11.752;2023-07-31T13:03:00;35.60;24.60
78054;DHT22;67726;45.636;11.752;2023-07-31T13:05:26;35.90;23.60
78054;DHT22;67726;45.636;11.752;2023-07-31T13:07:52;36.10;24.10
78054;DHT22;67726;45.636;11.752;2023-07-31T13:10:18;35.20;24.90
78054;DHT22;67726;45.636;11.752;2023-07-31T13:12:44;36.40;23.90
78054;DHT22;67726;45.636;11.752;2023-07-31T13:15:10;37.10;22.50
78054;DHT22;67726;45.636;11.752;2023-07-31T13:17:36;37.40;20.30
78054;DHT22;67726;45.636;11.752;2023-07-31T13:20:02;35.80;23.60
78054;DHT22;67726;45.636;11.752;2023-07-31T13:22:29;36.60;22.90
78054;DHT22;67726;45.636;11.752;2023-07-31T13:24:55;37.10;22.70
78054;DHT22;67726;45.636;11.752;2023-07-31T13:27:20;37.40;21.20
78054;DHT22;67726;45.636;11.752;2023-07-31T13:29:51;37.20;22.10
78054;DHT22;67726;45.636;11.752;2023-07-31T13:32:18;37.40;22.70
78054;DHT22;67726;45.636;11.752;2023-07-31T13:34:44;35.70;23.90
78054;DHT22;67726;45.636;11.752;2023-07-31T13:37:10;35.60;24.80
78054;DHT22;67726;45.636;11.752;2023-07-31T13:39:36;35.40;25.80
78054;DHT22;67726;45.636;11.752;2023-07-31T13:42:05;36.50;24.50
78054;DHT22;67726;45.636;11.752;2023-07-31T13:44:38;37.10;24.20
78054;DHT22;67726;45.636;11.752;2023-07-31T13:47:04;37.50;22.90
78054;DHT22;67726;45.636;11.752;2023-07-31T13:49:30;37.30;23.10
78054;DHT22;67726;45.636;11.752;2023-07-31T13:51:56;37.10;22.50
78054;DHT22;67726;45.636;11.752;2023-07-31T13:54:23;36.80;22.10
78054;DHT22;67726;45.636;11.752;2023-07-31T13:56:49;36.60;22.90
78054;DHT22;67726;45.636;11.752;2023-07-31T13:59:15;36.70;23.10
78054;DHT22;67726;45.636;11.752;2023-07-31T14:01:42;37.50;22.00
78054;DHT22;67726;45.636;11.752;2023-07-31T14:04:08;37.70;21.40
78054;DHT22;67726;45.636;11.752;2023-07-31T14:06:34;38.30;21.00
78054;DHT22;67726;45.636;11.752;2023-07-31T14:09:00;38.60;20.60
78054;DHT22;67726;45.636;11.752;2023-07-31T14:11:26;37.30;22.60
78054;DHT22;67726;45.636;11.752;2023-07-31T14:13:52;36.80;22.90
78054;DHT22;67726;45.636;11.752;2023-07-31T14:16:18;36.20;23.80
78054;DHT22;67726;45.636;11.752;2023-07-31T14:18:43;35.40;24.50
78054;DHT22;67726;45.636;11.752;2023-07-31T14:21:11;36.50;23.80
78054;DHT22;67726;45.636;11.752;2023-07-31T14:23:37;36.90;23.30
78054;DHT22;67726;45.636;11.752;2023-07-31T14:26:02;36.60;23.30
78054;DHT22;67726;45.636;11.752;2023-07-31T14:28:28;37.30;22.50
78054;DHT22;67726;45.636;11.752;2023-07-31T14:30:53;37.60;22.70
78054;DHT22;67726;45.636;11.752;2023-07-31T14:33:19;37.20;23.60
78054;DHT22;67726;45.636;11.752;2023-07-31T14:35:45;36.80;23.80
78054;DHT22;67726;45.636;11.752;2023-07-31T14:38:10;35.90;24.50
78054;DHT22;67726;45.636;11.752;2023-07-31T14:40:36;36.60;23.80
78054;DHT22;67726;45.636;11.752;2023-07-31T14:43:04;36.60;23.90
78054;DHT22;67726;45.636;11.752;2023-07-31T14:45:29;36.80;24.50
78054;DHT22;67726;45.636;11.752;2023-07-31T14:47:55;36.20;25.00
78054;DHT22;67726;45.636;11.752;2023-07-31T14:50:21;36.10;25.20
78054;DHT22;67726;45.636;11.752;2023-07-31T14:52:48;35.00;25.50
78054;DHT22;67726;45.636;11.752;2023-07-31T14:55:13;34.80;25.90
78054;DHT22;67726;45.636;11.752;2023-07-31T14:57:39;34.70;26.10
78054;DHT22;67726;45.636;11.752;2023-07-31T15:00:05;34.50;27.80
78054;DHT22;67726;45.636;11.752;2023-07-31T15:02:34;34.30;28.20
78054;DHT22;67726;45.636;11.752;2023-07-31T15:05:00;34.20;27.80
78054;DHT22;67726;45.636;11.752;2023-07-31T15:07:26;33.70;28.20
78054;DHT22;67726;45.636;11.752;2023-07-31T15:09:52;34.00;27.60
78054;DHT22;67726;45.636;11.752;2023-07-31T15:12:17;34.10;27.40
78054;DHT22;67726;45.636;11.752;2023-07-31T15:14:43;34.00;28.00
78054;DHT22;67726;45.636;11.752;2023-07-31T15:17:09;33.70;28.50
78054;DHT22;67726;45.636;11.752;2023-07-31T15:19:34;33.20;29.20
78054;DHT22;67726;45.636;11.752;2023-07-31T15:22:02;33.10;29.40
78054;DHT22;67726;45.636;11.752;2023-07-31T15:24:28;33.10;28.90
78054;DHT22;67726;45.636;11.752;2023-07-31T15:26:54;33.20;29.30
78054;DHT22;67726;45.636;11.752;2023-07-31T15:29:20;33.00;29.70
78054;DHT22;67726;45.636;11.752;2023-07-31T15:31:46;32.80;30.80
78054;DHT22;67726;45.636;11.752;2023-07-31T15:34:13;32.80;31.30
78054;DHT22;67726;45.636;11.752;2023-07-31T15:36:39;32.50;31.00
78054;DHT22;67726;45.636;11.752;2023-07-31T15:39:05;32.30;31.70